Time;durP1;ratioP1;P1;durP2;ratioP2;P2;SDS_P1;SDS_P2;PMS_P1;PMS_P2;Temp;Humidity;BMP_temperature;BMP_pressure;BME280_temperature;BME280_humidity;BME280_pressure;Samples;Min_cycle;Max_cycle;Signal;HPM_P1;HPM_P2
2023/12/22 00:01:00;;;;;;;18.65;10.57;;;;;;;7.37;65.22;97363.91;7712818;32;37513;-78
2023/12/22 00:05:17;;;;;;;18.48;10.02;;;;;;;7.24;66.40;97316.78;7711509;32;37494;-78
2023/12/22 00:09:33;;;;;;;7.97;5.22;;;;;;;7.47;65.38;97319.47;7722685;32;39472;-79
2023/12/22 00:13:49;;;;;;;12.02;5.93;;;;;;;6.91;67.08;97313.56;7739198;32;39857;-78
2023/12/22 00:18:06;;;;;;;9.48;5.47;;;;;;;6.85;67.51;97320.22;7739474;32;38588;-78
2023/12/22 00:22:22;;;;;;;7.72;4.70;;;;;;;7.00;67.81;97357.75;7739524;32;36822;-79
2023/12/22 00:26:39;;;;;;;7.50;4.78;;;;;;;7.09;68.06;97330.75;7739552;32;40185;-78
2023/12/22 00:30:55;;;;;;;9.75;4.68;;;;;;;6.68;69.68;97346.03;7739500;32;40000;-79
2023/12/22 00:35:11;;;;;;;5.90;4.43;;;;;;;7.08;68.70;97348.87;7726290;32;37734;-79
2023/12/22 00:39:28;;;;;;;5.68;3.58;;;;;;;7.18;68.74;97355.19;7712364;32;37552;-80
2023/12/22 00:43:44;;;;;;;6.20;4.12;;;;;;;6.97;69.82;97371.94;7712529;32;39434;-79
2023/12/22 00:48:00;;;;;;;7.32;4.32;;;;;;;6.96;69.81;97402.81;7712050;32;40535;-79
2023/12/22 00:52:17;;;;;;;11.18;5.60;;;;;;;6.97;68.48;97382.78;7712355;32;37896;-79
2023/12/22 00:56:33;;;;;;;8.02;4.95;;;;;;;6.77;69.21;97392.16;7712328;32;37893;-77
2023/12/22 01:00:49;;;;;;;10.02;5.50;;;;;;;6.90;69.30;97425.72;7726823;32;39450;-78
2023/12/22 01:05:06;;;;;;;8.18;4.68;;;;;;;6.96;69.08;97424.50;7738675;32;40708;-80
2023/12/22 01:09:22;;;;;;;9.73;5.35;;;;;;;7.15;68.62;97463.06;7728600;32;37637;-79
2023/12/22 01:13:38;;;;;;;9.05;4.40;;;;;;;7.09;68.54;97480.56;7712220;32;37706;-79
2023/12/22 01:17:55;;;;;;;8.00;4.68;;;;;;;6.74;70.11;97479.41;7712195;32;39467;-79
2023/12/22 01:22:11;;;;;;;9.25;5.20;;;;;;;6.75;69.74;97487.22;7712295;32;38694;-79
2023/12/22 01:26:28;;;;;;;7.78;4.72;;;;;;;6.33;71.43;97496.47;7729000;32;37900;-79
2023/12/22 01:30:44;;;;;;;8.85;5.53;;;;;;;6.56;70.46;97500.09;7738730;32;37008;-79
2023/12/22 01:35:03;;;;;;;7.95;4.82;;;;;;;6.30;71.01;97510.63;7738787;32;39009;-79
2023/12/22 01:39:19;;;;;;;9.75;5.62;;;;;;;6.71;70.32;97490.84;7738706;32;39949;-77
2023/12/22 01:43:36;;;;;;;9.32;5.43;;;;;;;6.98;69.72;97490.00;7738533;32;37867;-78
2023/12/22 01:47:52;;;;;;;7.97;4.93;;;;;;;6.47;71.08;97477.50;7738572;32;37119;-78
2023/12/22 01:52:09;;;;;;;6.25;3.92;;;;;;;7.28;68.51;97436.25;7716707;32;39322;-77
2023/12/22 01:56:25;;;;;;;6.80;3.85;;;;;;;6.75;68.78;97386.25;7711592;32;39968;-77
2023/12/22 02:00:42;;;;;;;6.72;4.15;;;;;;;6.65;69.12;97419.75;7710540;32;38787;-78
2023/12/22 02:04:59;;;;;;;6.28;4.10;;;;;;;7.01;68.01;97391.06;7711305;32;36970;-78
2023/12/22 02:09:16;;;;;;;5.05;3.28;;;;;;;6.84;68.23;97403.34;7711551;32;39419;-77
2023/12/22 02:13:32;;;;;;;7.85;3.37;;;;;;;6.34;68.85;97398.75;7711398;32;40053;-77
2023/12/22 02:18:13;;;;;;;5.25;2.90;;;;;;;6.69;67.89;97382.03;7733922;32;37977;-78
2023/12/22 02:22:29;;;;;;;3.83;2.87;;;;;;;6.72;65.69;97352.44;7734943;32;37005;-77
2023/12/22 02:26:47;;;;;;;3.20;2.25;;;;;;;6.56;64.99;97356.63;7738106;32;40900;-77
2023/12/22 02:31:22;;;;;;;2.30;2.10;;;;;;;6.85;63.95;97371.69;7737994;32;40883;-78
2023/12/22 02:35:41;;;;;;;2.10;1.90;;;;;;;6.60;64.15;97419.84;7737971;32;37531;-76
2023/12/22 02:39:58;;;;;;;3.42;2.45;;;;;;;6.45;63.43;97401.22;7734287;32;37097;-78
2023/12/22 02:44:14;;;;;;;1.70;1.60;;;;;;;6.12;63.22;97414.88;7709847;32;39064;-78
2023/12/22 02:48:31;;;;;;;3.00;1.80;;;;;;;6.60;63.35;97400.13;7710901;32;40051;-78
2023/12/22 02:52:47;;;;;;;1.62;1.52;;;;;;;6.17;64.66;97371.50;7710763;32;37883;-78
2023/12/22 02:57:04;;;;;;;1.83;1.73;;;;;;;5.99;65.88;97376.72;7710924;32;37865;-78
2023/12/22 03:01:20;;;;;;;1.75;1.62;;;;;;;6.18;65.58;97394.75;7710771;32;39671;-78
2023/12/22 03:05:36;;;;;;;2.03;1.90;;;;;;;6.00;67.13;97404.56;7715764;32;40640;-78
2023/12/22 03:09:53;;;;;;;1.90;1.80;;;;;;;6.48;65.26;97411.47;7735114;32;38643;-78
2023/12/22 03:14:10;;;;;;;2.22;1.77;;;;;;;6.32;66.34;97417.19;7737394;32;37783;-78
2023/12/22 03:18:26;;;;;;;1.90;1.80;;;;;;;5.86;68.99;97423.44;7735972;32;39911;-78
2023/12/22 03:22:43;;;;;;;2.00;1.80;;;;;;;5.84;69.39;97436.47;7720453;32;41345;-78
2023/12/22 03:26:59;;;;;;;2.10;1.90;;;;;;;6.08;68.20;97449.06;7710082;32;37796;-79
2023/12/22 03:31:15;;;;;;;2.00;1.90;;;;;;;5.69;70.05;97448.37;7717983;32;37109;-78
2023/12/22 03:35:32;;;;;;;2.33;2.10;;;;;;;5.84;69.57;97468.94;7736717;32;40128;-78
2023/12/22 03:39:48;;;;;;;1.80;1.70;;;;;;;5.59;69.90;97470.97;7736550;32;40718;-78
2023/12/22 03:44:04;;;;;;;1.87;1.77;;;;;;;5.64;69.91;97470.09;7735299;32;37484;-78
2023/12/22 03:48:21;;;;;;;1.80;1.70;;;;;;;5.81;68.74;97467.62;7736374;32;37135;-78
2023/12/22 03:52:37;;;;;;;3.12;1.90;;;;;;;5.49;68.16;97495.47;7736247;32;40071;-78
2023/12/22 03:56:54;;;;;;;1.92;1.83;;;;;;;5.52;66.46;97496.75;7736110;32;40154;-77
2023/12/22 04:01:13;;;;;;;3.60;2.03;;;;;;;6.37;64.48;97533.47;7735532;32;38606;-77
2023/12/22 04:05:29;;;;;;;2.00;1.90;;;;;;;6.25;62.52;97535.84;7747296;32;37124;-78
2023/12/22 04:09:46;;;;;;;3.37;1.95;;;;;;;5.32;63.27;97535.72;7731076;32;39458;-77
2023/12/22 04:14:02;;;;;;;3.42;2.00;;;;;;;5.06;63.73;97544.19;7733041;32;41157;-77
2023/12/22 04:18:18;;;;;;;4.68;3.03;;;;;;;5.12;63.29;97543.00;7735606;32;37564;-77
2023/12/22 04:22:35;;;;;;;5.87;2.30;;;;;;;4.87;62.39;97539.53;7736266;32;37105;-77
2023/12/22 04:26:51;;;;;;;4.70;2.78;;;;;;;5.43;61.37;97537.97;7727349;32;39317;-77
2023/12/22 04:31:07;;;;;;;3.05;2.35;;;;;;;5.67;58.25;97547.09;7712626;32;40870;-77
2023/12/22 04:35:24;;;;;;;2.35;2.08;;;;;;;5.94;57.91;97547.19;7736774;32;37868;-77
2023/12/22 04:39:42;;;;;;;4.40;2.00;;;;;;;5.94;57.87;97554.50;7712696;32;37580;-77
2023/12/22 04:44:03;;;;;;;3.67;1.80;;;;;;;5.69;58.73;97544.88;7712587;32;39072;-77
2023/12/22 04:48:19;;;;;;;3.42;2.22;;;;;;;5.71;58.43;97542.69;7712544;32;40807;-77
2023/12/22 04:52:36;;;;;;;6.57;2.08;;;;;;;5.10;59.33;97534.38;7712345;32;38034;-77
2023/12/22 04:56:52;;;;;;;2.75;2.37;;;;;;;5.49;58.37;97544.09;7712256;32;37147;-76
2023/12/22 05:01:08;;;;;;;7.47;2.33;;;;;;;5.53;57.80;97544.31;7685725;32;39896;-77
2023/12/22 05:05:24;;;;;;;5.72;2.45;;;;;;;5.59;57.77;97552.06;7679631;32;188557;-78
2023/12/22 05:09:44;;;;;;;4.97;2.62;;;;;;;5.11;59.29;97562.22;7685542;32;37907;-77
2023/12/22 05:14:00;;;;;;;3.97;2.67;;;;;;;4.77;59.56;97569.37;7685476;32;37892;-77
2023/12/22 05:18:17;;;;;;;4.57;2.70;;;;;;;5.34;58.44;97582.16;7685743;32;39580;-78
2023/12/22 05:22:33;;;;;;;6.20;2.40;;;;;;;4.91;59.51;97582.16;7685406;32;40871;-78
2023/12/22 05:26:53;;;;;;;5.45;2.37;;;;;;;5.69;56.92;97597.06;7685428;32;37243;-77
2023/12/22 05:31:09;;;;;;;5.53;2.60;;;;;;;5.08;58.15;97607.59;7685337;32;37821;-77
2023/12/22 05:35:25;;;;;;;9.48;3.00;;;;;;;5.19;57.77;97602.06;7706210;32;40051;-77
2023/12/22 05:39:43;;;;;;;3.60;2.22;;;;;;;5.24;57.44;97602.81;7738169;32;40065;-78
2023/12/22 05:43:59;;;;;;;3.08;2.35;;;;;;;4.69;59.48;97619.41;7713288;32;37828;-78
2023/12/22 05:48:16;;;;;;;6.97;2.30;;;;;;;4.73;60.11;97626.94;7711772;32;37926;-78
2023/12/22 05:52:32;;;;;;;8.77;2.58;;;;;;;4.63;59.76;97619.72;7711800;32;40594;-77
2023/12/22 05:56:51;;;;;;;3.72;2.72;;;;;;;4.62;59.65;97627.03;7711645;32;39667;-78
2023/12/22 06:01:18;;;;;;;11.32;3.12;;;;;;;4.50;59.89;97624.72;7711807;32;38572;-77
2023/12/22 06:05:34;;;;;;;5.62;2.80;;;;;;;4.99;57.90;97627.44;7711412;32;36874;-78
2023/12/22 06:09:51;;;;;;;7.55;3.15;;;;;;;4.54;58.39;97643.84;7711660;32;40027;-77
2023/12/22 06:14:07;;;;;;;2.55;2.33;;;;;;;4.38;58.64;97650.47;7711176;32;39866;-77
2023/12/22 06:18:24;;;;;;;3.67;2.05;;;;;;;4.18;58.94;97659.53;7710535;32;37938;-76
2023/12/22 06:22:40;;;;;;;6.78;2.90;;;;;;;4.42;57.44;97676.59;7718388;32;37794;-80
2023/12/22 06:26:56;;;;;;;2.50;2.30;;;;;;;4.12;57.54;97677.63;7711831;32;39902;-80
2023/12/22 06:31:20;;;;;;;13.68;2.80;;;;;;;4.09;58.20;97683.63;7710174;32;40967;-78
2023/12/22 06:35:37;;;;;;;2.92;2.33;;;;;;;4.53;57.48;97690.78;7720086;32;39460;-79
2023/12/22 06:39:53;;;;;;;6.22;2.53;;;;;;;4.67;56.55;97683.66;7710969;32;37071;-81
2023/12/22 06:44:10;;;;;;;10.88;2.95;;;;;;;4.55;55.67;97685.91;7724742;32;39375;-80
2023/12/22 06:48:28;;;;;;;5.78;2.85;;;;;;;4.43;55.81;97694.41;7713992;32;39993;-80
2023/12/22 06:52:49;;;;;;;4.20;2.42;;;;;;;4.13;56.28;97700.84;7727390;32;37661;-79
2023/12/22 06:57:05;;;;;;;4.18;2.60;;;;;;;4.23;55.04;97689.97;7732408;32;37990;-79
2023/12/22 07:01:33;;;;;;;3.33;2.50;;;;;;;4.27;55.00;97690.22;7710713;32;39277;-80
2023/12/22 07:05:50;;;;;;;3.30;2.33;;;;;;;4.24;55.39;97704.25;7710478;32;40837;-80
2023/12/22 07:10:07;;;;;;;8.30;2.97;;;;;;;4.27;55.76;97717.19;7710608;32;37799;-81
2023/12/22 07:14:23;;;;;;;8.73;3.53;;;;;;;4.08;55.46;97739.41;7708841;32;37104;-81
2023/12/22 07:18:39;;;;;;;5.97;3.12;;;;;;;4.24;54.48;97742.00;7689190;32;40017;-81
2023/12/22 07:22:56;;;;;;;8.80;2.65;;;;;;;4.37;54.39;97748.69;7710188;32;40082;-79
2023/12/22 07:27:13;;;;;;;6.40;3.10;;;;;;;4.89;53.22;97739.84;7710006;32;38705;-81
2023/12/22 07:31:29;;;;;;;4.70;3.00;;;;;;;4.23;54.03;97743.13;7710084;32;38378;-79
2023/12/22 07:35:45;;;;;;;7.05;3.03;;;;;;;4.80;52.89;97738.06;7710703;32;40095;-78
2023/12/22 07:40:03;;;;;;;14.50;3.33;;;;;;;4.82;52.52;97744.78;7732822;32;41305;-79
2023/12/22 07:44:19;;;;;;;3.37;2.45;;;;;;;5.33;51.58;97745.34;7730164;32;38591;-77
2023/12/22 07:48:35;;;;;;;13.85;3.78;;;;;;;5.40;51.04;97740.44;7725250;32;37015;-81
2023/12/22 07:52:51;;;;;;;7.25;2.70;;;;;;;5.46;51.42;97736.56;7722221;32;39891;-81
2023/12/22 07:57:09;;;;;;;5.10;2.55;;;;;;;5.43;51.50;97727.16;7717687;32;40825;-81
2023/12/22 08:01:26;;;;;;;3.83;2.55;;;;;;;5.52;51.08;97735.41;7698459;32;37892;-80
2023/12/22 08:05:42;;;;;;;6.28;2.35;;;;;;;5.63;51.20;97747.69;7686275;32;36757;-79
2023/12/22 08:09:58;;;;;;;6.05;2.53;;;;;;;5.92;50.90;97748.72;7686475;32;40436;-80
2023/12/22 08:14:15;;;;;;;9.95;3.25;;;;;;;6.16;51.02;97748.69;7710852;32;40034;-80
2023/12/22 08:18:31;;;;;;;2.92;2.05;;;;;;;6.22;50.61;97752.91;7689075;32;37751;-80
2023/12/22 08:22:53;;;;;;;6.20;2.40;;;;;;;5.75;50.87;97751.91;7712795;32;36869;-80
2023/12/22 08:27:10;;;;;;;11.35;3.03;;;;;;;6.00;51.05;97761.59;7712510;32;39043;-80
2023/12/22 08:31:26;;;;;;;3.28;2.28;;;;;;;6.26;50.44;97753.94;7720683;32;40539;-79
2023/12/22 08:35:43;;;;;;;8.85;2.60;;;;;;;6.22;51.78;97769.16;7711096;32;37910;-79
2023/12/22 08:39:59;;;;;;;4.53;2.50;;;;;;;6.43;51.58;97766.13;7712574;32;37801;-82
2023/12/22 08:44:16;;;;;;;6.72;2.40;;;;;;;6.89;49.83;97762.69;7713724;32;39299;-80
2023/12/22 08:48:32;;;;;;;4.43;2.00;;;;;;;6.82;50.32;97765.00;7739284;32;40542;-81
2023/12/22 08:52:52;;;;;;;7.05;2.75;;;;;;;6.30;50.53;97768.50;7728342;32;37953;-77
2023/12/22 08:57:09;;;;;;;9.98;2.10;;;;;;;6.68;51.50;97765.75;7712294;32;37007;-79
2023/12/22 09:01:26;;;;;;;7.95;2.45;;;;;;;6.47;51.15;97764.44;7712209;32;40029;-80
2023/12/22 09:05:43;;;;;;;3.92;2.28;;;;;;;6.23;52.90;97781.59;7719181;32;41053;-86
2023/12/22 09:09:59;;;;;;;2.03;1.87;;;;;;;6.13;53.98;97771.69;7736054;32;38597;-81
2023/12/22 09:14:16;;;;;;;3.67;2.30;;;;;;;5.74;55.43;97777.31;7723780;32;37028;-80
2023/12/22 09:18:32;;;;;;;5.20;2.37;;;;;;;5.97;54.84;97779.22;7712077;32;39455;-79
2023/12/22 09:22:49;;;;;;;2.50;2.33;;;;;;;5.72;56.40;97774.09;7733620;32;39960;-80
2023/12/22 09:27:06;;;;;;;4.65;2.65;;;;;;;5.70;55.70;97792.53;7713107;32;38009;-80
2023/12/22 09:31:22;;;;;;;5.32;2.30;;;;;;;5.86;55.71;97777.69;7725438;32;37035;-71
2023/12/22 09:35:41;;;;;;;5.07;2.20;;;;;;;5.99;54.76;97779.72;7738416;32;39806;-80
2023/12/22 09:39:58;;;;;;;3.72;2.00;;;;;;;5.85;55.65;97768.00;7726342;32;40822;-81
2023/12/22 09:44:19;;;;;;;2.20;2.00;;;;;;;5.61;55.68;97776.94;7711862;32;37762;-83
2023/12/22 09:48:39;;;;;;;2.28;2.03;;;;;;;5.65;55.55;97786.06;7710720;32;37862;-83
2023/12/22 09:52:55;;;;;;;3.80;2.20;;;;;;;5.26;55.88;97789.75;7720995;32;39405;-82
2023/12/22 09:57:12;;;;;;;4.68;2.10;;;;;;;5.43;56.30;97791.19;7706183;32;40900;-81
2023/12/22 10:01:45;;;;;;;2.00;1.90;;;;;;;4.99;56.69;97808.38;7683803;32;38411;-71
2023/12/22 10:06:02;;;;;;;5.18;2.25;;;;;;;5.32;57.25;97784.28;7710461;32;37834;-83
2023/12/22 10:10:19;;;;;;;6.57;2.55;;;;;;;5.39;57.23;97782.06;7711523;32;39918;-82
2023/12/22 10:14:37;;;;;;;2.45;1.98;;;;;;;5.86;56.22;97777.69;7730619;32;40223;-83
2023/12/22 10:18:56;;;;;;;13.88;2.90;;;;;;;5.58;57.16;97771.31;7736916;32;37825;-73
2023/12/22 10:23:12;;;;;;;2.40;2.20;;;;;;;5.52;57.83;97759.75;7735978;32;38044;-84
2023/12/22 10:27:31;;;;;;;5.90;2.78;;;;;;;5.52;57.57;97756.22;7737974;32;39135;-84
2023/12/22 10:31:49;;;;;;;2.78;2.30;;;;;;;5.70;57.03;97751.97;7736882;32;39978;-82
2023/12/22 10:36:08;;;;;;;2.70;2.08;;;;;;;5.99;54.84;97747.28;7720877;32;37207;-83
2023/12/22 10:40:25;;;;;;;3.42;2.45;;;;;;;6.18;53.74;97735.66;7708491;32;36829;-84
2023/12/22 10:44:42;;;;;;;7.82;3.35;;;;;;;5.68;55.62;97738.75;7709810;32;39498;-81
2023/12/22 10:48:58;;;;;;;2.40;2.12;;;;;;;6.03;54.86;97722.34;7708817;32;39830;-82
2023/12/22 10:53:15;;;;;;;3.97;2.55;;;;;;;6.03;55.11;97700.72;7710043;32;37592;-82
2023/12/22 10:57:37;;;;;;;2.15;1.98;;;;;;;6.44;53.76;97700.88;7710070;32;37120;-82
2023/12/22 11:01:56;;;;;;;3.28;2.12;;;;;;;6.67;53.50;97715.37;7709924;32;39438;-83
2023/12/22 11:06:15;;;;;;;4.53;2.35;;;;;;;6.99;52.12;97707.53;7709746;32;40216;-81
2023/12/22 11:10:34;;;;;;;7.85;2.00;;;;;;;7.01;51.35;97711.53;7708511;32;37688;-81
2023/12/22 11:14:52;;;;;;;3.75;2.50;;;;;;;6.49;51.84;97708.13;7708495;32;37122;-82
2023/12/22 11:19:09;;;;;;;1.90;1.80;;;;;;;6.54;52.29;97706.13;7708532;32;39437;-83
2023/12/22 11:23:26;;;;;;;2.33;1.90;;;;;;;6.17;54.06;97698.87;7709746;32;39916;-83
2023/12/22 11:27:43;;;;;;;2.35;2.08;;;;;;;5.93;54.64;97697.03;7716847;32;38319;-84
2023/12/22 11:32:02;;;;;;;3.03;1.87;;;;;;;5.95;54.90;97716.47;7732289;32;37899;-83
2023/12/22 11:36:19;;;;;;;2.42;2.12;;;;;;;6.09;54.91;97710.34;7739096;32;40131;-81
2023/12/22 11:40:35;;;;;;;3.97;2.65;;;;;;;6.53;53.08;97709.13;7740130;32;40909;-83
2023/12/22 11:44:54;;;;;;;3.67;1.95;;;;;;;6.48;54.27;97734.38;7731681;32;37765;-82
2023/12/22 11:49:10;;;;;;;3.33;2.17;;;;;;;6.36;53.73;97712.38;7707913;32;37008;-83
2023/12/22 11:53:34;;;;;;;4.37;2.30;;;;;;;6.66;51.12;97713.78;7686602;32;39361;-83
2023/12/22 11:57:50;;;;;;;7.05;2.17;;;;;;;6.99;50.39;97705.63;7685334;32;39887;-83
2023/12/22 12:02:10;;;;;;;5.25;2.35;;;;;;;6.70;51.35;97714.78;7696084;32;37552;-83
2023/12/22 12:06:27;;;;;;;4.30;2.40;;;;;;;7.29;48.56;97703.44;7712889;32;37127;-84
2023/12/22 12:10:51;;;;;;;4.80;2.20;;;;;;;7.49;48.41;97708.44;7712930;32;40183;-84
2023/12/22 12:15:09;;;;;;;3.20;2.12;;;;;;;7.86;46.41;97703.06;7712960;32;38642;-85
2023/12/22 12:19:26;;;;;;;2.90;1.80;;;;;;;8.17;46.07;97696.97;7712829;32;37270;-84
2023/12/22 12:23:42;;;;;;;10.52;2.40;;;;;;;8.08;45.12;97681.41;7712699;32;37735;-83
2023/12/22 12:28:09;;;;;;;2.40;1.70;;;;;;;7.96;45.09;97677.63;7723756;32;39413;-83
2023/12/22 12:32:26;;;;;;;1.60;1.50;;;;;;;7.17;49.07;97701.22;7736025;32;40139;-84
2023/12/22 12:36:43;;;;;;;2.37;2.15;;;;;;;6.79;50.99;97697.88;7706555;32;37502;-83
2023/12/22 12:41:00;;;;;;;3.53;2.00;;;;;;;5.93;54.84;97777.34;7716087;32;37164;-82
2023/12/22 12:45:22;;;;;;;2.10;1.90;;;;;;;5.08;61.12;97802.06;7711701;32;39013;-83
2023/12/22 12:49:38;;;;;;;2.62;2.42;;;;;;;3.95;67.54;97858.69;7711351;32;40793;-84
2023/12/22 12:53:55;;;;;;;3.03;2.62;;;;;;;3.37;69.30;97781.00;7712354;32;38400;-84
2023/12/22 12:58:12;;;;;;;3.12;2.83;;;;;;;3.50;69.36;97795.75;7711246;32;37132;-88
2023/12/22 13:02:28;;;;;;;3.47;2.42;;;;;;;3.54;69.89;97810.31;7718091;32;40120;-84
2023/12/22 13:06:46;;;;;;;2.67;2.30;;;;;;;3.68;70.62;97822.09;7713840;32;39714;-85
2023/12/22 13:11:02;;;;;;;2.58;2.30;;;;;;;3.68;70.66;97794.38;7685713;32;38543;-81
2023/12/22 13:15:19;;;;;;;2.65;2.45;;;;;;;4.28;69.26;97789.75;7699837;32;36876;-85
2023/12/22 13:19:35;;;;;;;3.67;2.42;;;;;;;5.05;67.06;97775.66;7711070;32;40038;-84
2023/12/22 13:24:15;;;;;;;5.57;2.53;;;;;;;5.42;65.33;97770.69;7710872;32;40010;-79
2023/12/22 13:28:32;;;;;;;2.95;2.55;;;;;;;5.79;64.71;97769.16;7711912;32;38650;-78
2023/12/22 13:32:53;;;;;;;2.60;2.40;;;;;;;6.64;64.71;97750.38;7711923;32;37121;-80
2023/12/22 13:37:10;;;;;;;6.93;2.45;;;;;;;7.76;59.42;97736.66;7710868;32;39338;-80
2023/12/22 13:41:26;;;;;;;4.57;2.40;;;;;;;7.95;58.29;97719.44;7721884;32;40246;-75
2023/12/22 13:45:42;;;;;;;2.58;2.20;;;;;;;7.55;60.60;97721.91;7738522;32;37484;-79
2023/12/22 13:49:59;;;;;;;4.53;2.10;;;;;;;7.30;61.65;97715.91;7728926;32;37904;-79
2023/12/22 13:54:15;;;;;;;2.75;1.90;;;;;;;7.44;61.44;97713.97;7706520;32;39326;-79
2023/12/22 13:58:43;;;;;;;4.50;2.40;;;;;;;7.25;58.93;97713.28;7698328;32;40724;-81
2023/12/22 14:03:00;;;;;;;4.47;2.50;;;;;;;7.28;58.24;97699.13;7710389;32;37797;-82
2023/12/22 14:07:17;;;;;;;3.95;2.20;;;;;;;6.91;58.17;97692.78;7711550;32;37907;-81
2023/12/22 14:11:33;;;;;;;10.10;3.50;;;;;;;6.81;59.04;97707.28;7711534;32;39319;-81
2023/12/22 14:15:49;;;;;;;5.07;2.85;;;;;;;6.44;60.15;97710.91;7714350;32;40807;-82
2023/12/22 14:20:09;;;;;;;3.62;2.20;;;;;;;5.96;60.86;97725.41;7716810;32;38667;-81
2023/12/22 14:24:26;;;;;;;3.17;2.20;;;;;;;5.55;61.48;97734.81;7710153;32;38347;-80
2023/12/22 14:28:42;;;;;;;3.45;2.60;;;;;;;4.79;64.16;97734.56;7710760;32;39891;-80
2023/12/22 14:32:58;;;;;;;2.97;2.47;;;;;;;5.10;63.08;97728.84;7711275;32;40610;-80
2023/12/22 14:37:19;;;;;;;2.87;2.55;;;;;;;4.49;64.36;97731.03;7684735;32;37808;-82
2023/12/22 14:41:37;;;;;;;3.85;2.62;;;;;;;4.69;63.74;97748.12;7695780;32;37217;-80
2023/12/22 14:45:54;;;;;;;4.00;2.70;;;;;;;4.58;62.88;97754.72;7710899;32;38555;-81
2023/12/22 14:50:10;;;;;;;2.67;2.15;;;;;;;4.38;62.62;97769.16;7710714;32;40774;-81
2023/12/22 14:54:28;;;;;;;2.85;2.45;;;;;;;4.39;62.72;97752.69;7710944;32;37842;-82
2023/12/22 14:58:48;;;;;;;2.75;2.30;;;;;;;4.58;59.85;97773.63;7710911;32;37106;-84
2023/12/22 15:03:08;;;;;;;9.27;3.58;;;;;;;4.28;59.40;97761.97;7710804;32;41071;-84
2023/12/22 15:07:24;;;;;;;4.85;2.78;;;;;;;5.05;56.82;97732.44;7719529;32;40796;-83
2023/12/22 15:11:42;;;;;;;9.23;3.72;;;;;;;4.58;57.34;97719.63;7716189;32;37626;-82
2023/12/22 15:16:03;;;;;;;4.43;2.70;;;;;;;4.45;57.74;97735.41;7710476;32;36865;-84
2023/12/22 15:20:21;;;;;;;3.50;2.50;;;;;;;4.51;56.87;97766.63;7710562;32;40159;-80
2023/12/22 15:24:43;;;;;;;2.15;2.05;;;;;;;4.06;57.29;97776.66;7710294;32;40153;-82
2023/12/22 15:29:00;;;;;;;7.20;3.05;;;;;;;4.08;56.35;97797.94;7710191;32;37855;-82
2023/12/22 15:33:17;;;;;;;3.97;2.37;;;;;;;4.21;56.00;97770.38;7710234;32;37802;-81
2023/12/22 15:37:34;;;;;;;5.85;3.10;;;;;;;4.17;55.38;97803.56;7710070;32;40195;-80
2023/12/22 15:41:51;;;;;;;3.05;2.40;;;;;;;4.13;56.35;97785.22;7709817;32;39984;-81
2023/12/22 15:46:11;;;;;;;3.78;2.47;;;;;;;4.26;56.20;97793.78;7709591;32;37726;-81
2023/12/22 15:50:27;;;;;;;3.33;2.33;;;;;;;4.38;55.76;97805.06;7709928;32;37215;-81
2023/12/22 15:54:44;;;;;;;4.12;2.50;;;;;;;4.34;56.27;97836.37;7709553;32;40120;-80
2023/12/22 15:59:00;;;;;;;3.75;2.50;;;;;;;4.18;56.82;97819.47;7709431;32;40003;-81
2023/12/22 16:03:16;;;;;;;2.37;2.28;;;;;;;4.26;55.89;97813.50;7709157;32;37626;-81
2023/12/22 16:07:33;;;;;;;2.20;2.10;;;;;;;4.14;56.41;97811.13;7709119;32;38001;-80
2023/12/22 16:11:50;;;;;;;2.60;2.40;;;;;;;4.29;54.85;97812.13;7709172;32;39037;-80
2023/12/22 16:16:09;;;;;;;3.25;2.58;;;;;;;4.11;55.76;97838.66;7708981;32;40580;-80
2023/12/22 16:20:25;;;;;;;8.82;3.65;;;;;;;4.43;54.41;97836.59;7713390;32;37086;-79
2023/12/22 16:24:42;;;;;;;3.17;2.47;;;;;;;4.43;55.08;97834.72;7739411;32;37223;-80
2023/12/22 16:28:58;;;;;;;2.20;2.10;;;;;;;4.67;54.18;97824.03;7731438;32;40038;-78
2023/12/22 16:33:15;;;;;;;2.42;2.22;;;;;;;4.25;55.18;97827.25;7712649;32;39969;-79
2023/12/22 16:37:31;;;;;;;2.47;2.28;;;;;;;4.40;54.21;97835.25;7712612;32;37931;-79
2023/12/22 16:41:49;;;;;;;2.72;2.50;;;;;;;4.14;55.63;97837.31;7720785;32;37840;-81
2023/12/22 16:46:07;;;;;;;3.85;2.40;;;;;;;4.40;55.76;97834.44;7706332;32;39351;-80
2023/12/22 16:50:23;;;;;;;5.00;2.30;;;;;;;4.11;56.27;97837.84;7705361;32;41073;-80
2023/12/22 16:54:41;;;;;;;2.47;2.25;;;;;;;4.22;56.68;97834.00;7712316;32;37578;-82
2023/12/22 16:58:57;;;;;;;2.60;2.40;;;;;;;4.25;56.67;97838.84;7711653;32;37029;-80
2023/12/22 17:03:13;;;;;;;2.83;2.58;;;;;;;4.23;56.69;97845.63;7711997;32;40170;-80
2023/12/22 17:07:30;;;;;;;2.20;2.10;;;;;;;4.94;55.20;97824.62;7712221;32;39944;-81
2023/12/22 17:11:52;;;;;;;3.97;2.75;;;;;;;4.64;56.60;97839.94;7712245;32;37848;-81
2023/12/22 17:16:10;;;;;;;8.30;3.92;;;;;;;4.56;56.72;97818.97;7712306;32;36913;-81
2023/12/22 17:20:26;;;;;;;12.37;5.57;;;;;;;4.64;56.89;97808.38;7712209;32;39360;-80
2023/12/22 17:24:43;;;;;;;6.37;2.60;;;;;;;4.80;56.54;97819.06;7712013;32;40812;-80
2023/12/22 17:29:00;;;;;;;2.60;2.40;;;;;;;5.04;56.21;97832.66;7711375;32;38702;-81
2023/12/22 17:33:17;;;;;;;7.95;3.53;;;;;;;4.96;56.42;97820.53;7711952;32;36854;-80
2023/12/22 17:37:34;;;;;;;4.10;2.50;;;;;;;5.25;55.53;97803.53;7712201;32;39344;-81
2023/12/22 17:41:50;;;;;;;2.70;2.45;;;;;;;5.42;55.05;97784.19;7711832;32;39922;-81
2023/12/22 17:46:07;;;;;;;2.90;2.40;;;;;;;5.12;56.52;97785.28;7711681;32;39244;-83
2023/12/22 17:50:23;;;;;;;10.25;2.80;;;;;;;4.64;57.31;97802.16;7711621;32;37241;-82
2023/12/22 17:54:39;;;;;;;2.30;2.20;;;;;;;4.46;58.88;97807.16;7711829;32;40083;-83
2023/12/22 17:58:55;;;;;;;3.72;2.65;;;;;;;4.65;58.72;97804.59;7711654;32;40950;-81
2023/12/22 18:03:12;;;;;;;2.45;2.25;;;;;;;4.31;59.65;97821.56;7711456;32;37786;-80
2023/12/22 18:07:28;;;;;;;2.62;2.42;;;;;;;3.89;60.64;97830.13;7719724;32;37968;-82
2023/12/22 18:11:45;;;;;;;4.47;2.78;;;;;;;4.54;58.97;97819.25;7711487;32;39270;-81
2023/12/22 18:16:02;;;;;;;3.70;2.83;;;;;;;4.69;58.74;97821.03;7711594;32;41678;-81
2023/12/22 18:20:18;;;;;;;3.25;2.67;;;;;;;4.32;59.21;97825.06;7710281;32;37800;-80
2023/12/22 18:24:34;;;;;;;3.28;2.70;;;;;;;4.60;58.76;97811.91;7710322;32;37785;-82
2023/12/22 18:28:50;;;;;;;3.92;2.80;;;;;;;4.33;59.21;97853.66;7718235;32;40047;-81
2023/12/22 18:33:07;;;;;;;6.72;4.62;;;;;;;4.15;60.01;97860.47;7734780;32;40794;-81
2023/12/22 18:37:23;;;;;;;3.62;2.42;;;;;;;4.04;61.86;97867.81;7737942;32;38572;-81
2023/12/22 18:41:40;;;;;;;3.75;2.92;;;;;;;3.73;64.10;97859.81;7737190;32;37140;-81
2023/12/22 18:45:56;;;;;;;5.15;3.10;;;;;;;3.12;67.77;97892.25;7736600;32;39052;-80
2023/12/22 18:50:13;;;;;;;3.42;2.80;;;;;;;3.55;68.42;97879.25;7722118;32;39742;-80
2023/12/22 18:54:29;;;;;;;3.28;2.70;;;;;;;2.88;70.46;97863.19;7721240;32;38960;-81
2023/12/22 18:58:46;;;;;;;13.23;5.45;;;;;;;3.18;70.64;97856.97;7710884;32;37875;-80
2023/12/22 19:03:04;;;;;;;5.55;3.25;;;;;;;3.11;70.98;97840.28;7710787;32;39491;-78
2023/12/22 19:07:21;;;;;;;10.50;4.95;;;;;;;2.56;74.00;97826.53;7710629;32;39790;-80
2023/12/22 19:11:37;;;;;;;4.03;3.33;;;;;;;3.03;72.26;97818.47;7710547;32;38587;-79
2023/12/22 19:15:53;;;;;;;3.03;2.78;;;;;;;2.92;73.38;97807.72;7710441;32;37029;-79
2023/12/22 19:20:10;;;;;;;8.65;4.78;;;;;;;3.47;72.05;97807.09;7719024;32;40087;-81
2023/12/22 19:24:26;;;;;;;3.28;2.95;;;;;;;3.55;71.37;97803.81;7737303;32;39620;-79
2023/12/22 19:28:43;;;;;;;3.47;2.80;;;;;;;3.28;71.48;97809.56;7736906;32;37811;-79
2023/12/22 19:33:01;;;;;;;2.62;2.42;;;;;;;3.52;71.63;97804.41;7736971;32;37018;-80
2023/12/22 19:37:18;;;;;;;2.78;2.58;;;;;;;3.34;71.21;97782.31;7736927;32;40192;-80
2023/12/22 19:41:35;;;;;;;2.75;2.55;;;;;;;3.21;71.52;97785.63;7734122;32;39996;-80
2023/12/22 19:45:51;;;;;;;2.70;2.50;;;;;;;3.38;71.50;97756.47;7736796;32;37824;-79
2023/12/22 19:50:09;;;;;;;3.20;2.90;;;;;;;2.81;73.50;97768.41;7736473;32;37089;-78
2023/12/22 19:54:25;;;;;;;2.67;2.47;;;;;;;3.45;71.03;97748.09;7738681;32;40050;-79
2023/12/22 19:58:42;;;;;;;3.12;2.83;;;;;;;3.03;71.71;97762.75;7721084;32;40786;-78
2023/12/22 20:02:58;;;;;;;2.92;2.60;;;;;;;3.31;70.92;97758.66;7712864;32;37805;-78
2023/12/22 20:07:14;;;;;;;3.92;3.10;;;;;;;3.65;70.06;97749.91;7713021;32;36938;-80
2023/12/22 20:11:31;;;;;;;2.95;2.70;;;;;;;3.67;68.87;97769.28;7713113;32;39440;-79
2023/12/22 20:15:48;;;;;;;2.90;2.70;;;;;;;3.99;67.95;97759.97;7712910;32;40890;-79
2023/12/22 20:20:04;;;;;;;6.03;3.80;;;;;;;4.03;68.71;97766.41;7712755;32;37780;-80
2023/12/22 20:24:21;;;;;;;4.28;3.50;;;;;;;4.35;67.38;97761.63;7712936;32;38021;-79